sensor_id;sensor_type;location;lat;lon;timestamp;pressure;altitude;pressure_sealevel;temperature;humidity
35507;BME280;36461;52.018;21.036;2024-01-10T00:00:00;102143.59;;;-10.48;72.64
35507;BME280;36461;52.018;21.036;2024-01-10T00:02:32;102136.39;;;-10.50;72.49
35507;BME280;36461;52.018;21.036;2024-01-10T00:05:00;102132.23;;;-10.50;72.72
35507;BME280;36461;52.018;21.036;2024-01-10T00:07:28;102140.41;;;-10.46;72.91
35507;BME280;36461;52.018;21.036;2024-01-10T00:09:56;102143.64;;;-10.41;72.91
35507;BME280;36461;52.018;21.036;2024-01-10T00:12:25;102139.95;;;-10.37;72.83
35507;BME280;36461;52.018;21.036;2024-01-10T00:14:53;102140.77;;;-10.35;72.84
35507;BME280;36461;52.018;21.036;2024-01-10T00:17:21;102145.54;;;-10.34;72.94
35507;BME280;36461;52.018;21.036;2024-01-10T00:19:49;102142.23;;;-10.33;72.85
35507;BME280;36461;52.018;21.036;2024-01-10T00:22:17;102136.89;;;-10.33;72.81
35507;BME280;36461;52.018;21.036;2024-01-10T00:24:44;102131.71;;;-10.33;72.95
35507;BME280;36461;52.018;21.036;2024-01-10T00:27:13;102126.15;;;-10.32;72.89
35507;BME280;36461;52.018;21.036;2024-01-10T00:29:41;102115.98;;;-10.31;72.98
35507;BME280;36461;52.018;21.036;2024-01-10T00:32:09;102113.23;;;-10.30;72.91
35507;BME280;36461;52.018;21.036;2024-01-10T00:34:37;102110.34;;;-10.30;72.91
35507;BME280;36461;52.018;21.036;2024-01-10T00:37:05;102115.95;;;-10.29;72.88
35507;BME280;36461;52.018;21.036;2024-01-10T00:39:33;102110.31;;;-10.28;72.82
35507;BME280;36461;52.018;21.036;2024-01-10T00:42:01;102107.73;;;-10.23;72.97
35507;BME280;36461;52.018;21.036;2024-01-10T00:44:29;102105.52;;;-10.19;73.07
35507;BME280;36461;52.018;21.036;2024-01-10T00:46:57;102109.16;;;-10.19;72.98
35507;BME280;36461;52.018;21.036;2024-01-10T00:49:25;102112.98;;;-10.20;72.95
35507;BME280;36461;52.018;21.036;2024-01-10T00:51:53;102112.23;;;-10.19;72.97
35507;BME280;36461;52.018;21.036;2024-01-10T00:54:21;102110.38;;;-10.15;73.19
35507;BME280;36461;52.018;21.036;2024-01-10T00:56:49;102109.02;;;-10.11;72.98
35507;BME280;36461;52.018;21.036;2024-01-10T00:59:18;102113.97;;;-10.07;73.02
35507;BME280;36461;52.018;21.036;2024-01-10T01:01:46;102111.40;;;-10.08;72.98
35507;BME280;36461;52.018;21.036;2024-01-10T01:04:14;102113.31;;;-10.07;72.95
35507;BME280;36461;52.018;21.036;2024-01-10T01:06:42;102108.26;;;-10.07;72.71
35507;BME280;36461;52.018;21.036;2024-01-10T01:09:10;102109.08;;;-10.08;72.79
35507;BME280;36461;52.018;21.036;2024-01-10T01:11:40;102113.55;;;-10.08;72.85
35507;BME280;36461;52.018;21.036;2024-01-10T01:14:08;102111.98;;;-10.09;72.81
35507;BME280;36461;52.018;21.036;2024-01-10T01:16:36;102112.38;;;-10.11;72.68
35507;BME280;36461;52.018;21.036;2024-01-10T01:19:04;102115.34;;;-10.12;72.72
35507;BME280;36461;52.018;21.036;2024-01-10T01:21:33;102116.06;;;-10.11;72.64
35507;BME280;36461;52.018;21.036;2024-01-10T01:24:00;102117.42;;;-10.10;72.72
35507;BME280;36461;52.018;21.036;2024-01-10T01:26:28;102117.19;;;-10.11;72.76
35507;BME280;36461;52.018;21.036;2024-01-10T01:28:56;102115.52;;;-10.11;72.68
35507;BME280;36461;52.018;21.036;2024-01-10T01:31:24;102111.91;;;-10.10;72.88
35507;BME280;36461;52.018;21.036;2024-01-10T01:33:52;102110.77;;;-10.10;72.97
35507;BME280;36461;52.018;21.036;2024-01-10T01:36:20;102112.63;;;-10.07;73.16
35507;BME280;36461;52.018;21.036;2024-01-10T01:38:48;102108.85;;;-10.04;72.98
35507;BME280;36461;52.018;21.036;2024-01-10T01:41:16;102101.32;;;-10.04;72.79
35507;BME280;36461;52.018;21.036;2024-01-10T01:43:45;102096.33;;;-10.06;72.80
35507;BME280;36461;52.018;21.036;2024-01-10T01:46:14;102090.63;;;-10.08;72.92
35507;BME280;36461;52.018;21.036;2024-01-10T01:48:43;102091.45;;;-10.11;72.88
35507;BME280;36461;52.018;21.036;2024-01-10T01:51:12;102089.34;;;-10.12;72.96
35507;BME280;36461;52.018;21.036;2024-01-10T01:53:44;102085.83;;;-10.10;73.03
35507;BME280;36461;52.018;21.036;2024-01-10T01:56:13;102085.80;;;-10.06;72.92
35507;BME280;36461;52.018;21.036;2024-01-10T01:58:42;102080.83;;;-10.07;72.83
35507;BME280;36461;52.018;21.036;2024-01-10T02:01:11;102076.64;;;-10.07;72.84
35507;BME280;36461;52.018;21.036;2024-01-10T02:03:40;102073.65;;;-10.09;72.69
35507;BME280;36461;52.018;21.036;2024-01-10T02:06:08;102070.79;;;-10.09;72.73
35507;BME280;36461;52.018;21.036;2024-01-10T02:08:36;102067.30;;;-10.09;72.70
35507;BME280;36461;52.018;21.036;2024-01-10T02:11:05;102067.80;;;-10.09;72.87
35507;BME280;36461;52.018;21.036;2024-01-10T02:13:33;102068.20;;;-10.10;72.68
35507;BME280;36461;52.018;21.036;2024-01-10T02:16:02;102069.88;;;-10.10;72.83
35507;BME280;36461;52.018;21.036;2024-01-10T02:18:31;102069.61;;;-10.12;72.63
35507;BME280;36461;52.018;21.036;2024-01-10T02:20:59;102068.54;;;-10.06;72.71
35507;BME280;36461;52.018;21.036;2024-01-10T02:23:27;102065.23;;;-10.03;72.65
35507;BME280;36461;52.018;21.036;2024-01-10T02:25:55;102065.02;;;-10.02;72.55
35507;BME280;36461;52.018;21.036;2024-01-10T02:28:23;102064.34;;;-10.04;72.35
35507;BME280;36461;52.018;21.036;2024-01-10T02:30:52;102061.88;;;-10.05;72.28
35507;BME280;36461;52.018;21.036;2024-01-10T02:33:22;102061.41;;;-10.07;72.25
35507;BME280;36461;52.018;21.036;2024-01-10T02:35:50;102059.92;;;-10.09;72.34
35507;BME280;36461;52.018;21.036;2024-01-10T02:38:18;102058.38;;;-10.12;72.25
35507;BME280;36461;52.018;21.036;2024-01-10T02:40:49;102058.27;;;-10.13;72.33
35507;BME280;36461;52.018;21.036;2024-01-10T02:43:17;102051.07;;;-10.15;72.53
35507;BME280;36461;52.018;21.036;2024-01-10T02:45:45;102050.41;;;-10.15;72.32
35507;BME280;36461;52.018;21.036;2024-01-10T02:48:13;102050.80;;;-10.15;72.45
35507;BME280;36461;52.018;21.036;2024-01-10T02:50:41;102050.13;;;-10.17;72.05
35507;BME280;36461;52.018;21.036;2024-01-10T02:53:09;102047.02;;;-10.18;72.22
35507;BME280;36461;52.018;21.036;2024-01-10T02:55:37;102042.83;;;-10.20;72.15
35507;BME280;36461;52.018;21.036;2024-01-10T02:58:05;102044.70;;;-10.19;72.19
35507;BME280;36461;52.018;21.036;2024-01-10T03:00:33;102047.20;;;-10.20;72.15
35507;BME280;36461;52.018;21.036;2024-01-10T03:03:01;102042.11;;;-10.23;72.04
35507;BME280;36461;52.018;21.036;2024-01-10T03:05:29;102043.64;;;-10.23;72.17
35507;BME280;36461;52.018;21.036;2024-01-10T03:07:57;102041.84;;;-10.22;72.30
35507;BME280;36461;52.018;21.036;2024-01-10T03:10:25;102034.91;;;-10.21;72.24
35507;BME280;36461;52.018;21.036;2024-01-10T03:12:53;102037.05;;;-10.19;72.23
35507;BME280;36461;52.018;21.036;2024-01-10T03:15:21;102037.34;;;-10.17;72.40
35507;BME280;36461;52.018;21.036;2024-01-10T03:17:49;102038.67;;;-10.13;72.37
35507;BME280;36461;52.018;21.036;2024-01-10T03:20:17;102030.10;;;-10.07;72.43
35507;BME280;36461;52.018;21.036;2024-01-10T03:22:46;102028.52;;;-10.04;72.35
35507;BME280;36461;52.018;21.036;2024-01-10T03:25:14;102017.46;;;-10.02;72.26
35507;BME280;36461;52.018;21.036;2024-01-10T03:27:42;102013.27;;;-10.02;72.23
35507;BME280;36461;52.018;21.036;2024-01-10T03:30:10;102011.40;;;-10.02;72.24
35507;BME280;36461;52.018;21.036;2024-01-10T03:32:38;102008.66;;;-10.01;72.23
35507;BME280;36461;52.018;21.036;2024-01-10T03:35:06;102008.88;;;-9.98;72.38
35507;BME280;36461;52.018;21.036;2024-01-10T03:37:34;102008.52;;;-9.96;72.29
35507;BME280;36461;52.018;21.036;2024-01-10T03:40:03;102006.27;;;-9.90;72.45
35507;BME280;36461;52.018;21.036;2024-01-10T03:42:31;102003.00;;;-9.83;72.48
35507;BME280;36461;52.018;21.036;2024-01-10T03:44:59;101994.94;;;-9.76;72.48
35507;BME280;36461;52.018;21.036;2024-01-10T03:47:27;101991.69;;;-9.75;72.33
35507;BME280;36461;52.018;21.036;2024-01-10T03:49:55;101986.52;;;-9.74;72.34
35507;BME280;36461;52.018;21.036;2024-01-10T03:52:23;101983.98;;;-9.70;72.30
35507;BME280;36461;52.018;21.036;2024-01-10T03:54:51;101987.23;;;-9.65;72.30
35507;BME280;36461;52.018;21.036;2024-01-10T03:57:19;101994.56;;;-9.56;72.35
35507;BME280;36461;52.018;21.036;2024-01-10T03:59:47;101991.02;;;-9.48;72.28
35507;BME280;36461;52.018;21.036;2024-01-10T04:02:15;101988.17;;;-9.41;72.09
35507;BME280;36461;52.018;21.036;2024-01-10T04:04:43;101985.63;;;-9.35;71.98
35507;BME280;36461;52.018;21.036;2024-01-10T04:07:11;101984.35;;;-9.29;72.11
35507;BME280;36461;52.018;21.036;2024-01-10T04:09:39;101984.34;;;-9.30;71.78
35507;BME280;36461;52.018;21.036;2024-01-10T04:12:07;101983.38;;;-9.29;71.89
35507;BME280;36461;52.018;21.036;2024-01-10T04:14:35;101984.69;;;-9.27;71.70
35507;BME280;36461;52.018;21.036;2024-01-10T04:17:03;101982.70;;;-9.27;71.49
35507;BME280;36461;52.018;21.036;2024-01-10T04:19:33;101981.73;;;-9.24;71.44
35507;BME280;36461;52.018;21.036;2024-01-10T04:22:01;101981.48;;;-9.25;71.25
35507;BME280;36461;52.018;21.036;2024-01-10T04:24:29;101978.35;;;-9.27;71.33
35507;BME280;36461;52.018;21.036;2024-01-10T04:26:57;101976.01;;;-9.27;71.30
35507;BME280;36461;52.018;21.036;2024-01-10T04:29:25;101969.82;;;-9.29;71.20
35507;BME280;36461;52.018;21.036;2024-01-10T04:31:53;101965.36;;;-9.35;71.16
35507;BME280;36461;52.018;21.036;2024-01-10T04:34:21;101970.46;;;-9.36;71.29
35507;BME280;36461;52.018;21.036;2024-01-10T04:36:51;101974.85;;;-9.38;71.24
35507;BME280;36461;52.018;21.036;2024-01-10T04:39:19;101979.90;;;-9.37;71.40
35507;BME280;36461;52.018;21.036;2024-01-10T04:41:48;101977.23;;;-9.37;71.13
35507;BME280;36461;52.018;21.036;2024-01-10T04:44:16;101971.83;;;-9.38;71.24
35507;BME280;36461;52.018;21.036;2024-01-10T04:46:44;101967.77;;;-9.40;71.32
35507;BME280;36461;52.018;21.036;2024-01-10T04:49:12;101967.45;;;-9.42;71.58
35507;BME280;36461;52.018;21.036;2024-01-10T04:51:41;101965.52;;;-9.43;71.60
35507;BME280;36461;52.018;21.036;2024-01-10T04:54:10;101964.55;;;-9.43;71.72
35507;BME280;36461;52.018;21.036;2024-01-10T04:56:39;101968.52;;;-9.42;71.77
35507;BME280;36461;52.018;21.036;2024-01-10T04:59:07;101961.87;;;-9.43;71.82
35507;BME280;36461;52.018;21.036;2024-01-10T05:01:35;101963.30;;;-9.44;71.81
35507;BME280;36461;52.018;21.036;2024-01-10T05:04:04;101958.82;;;-9.44;71.89
35507;BME280;36461;52.018;21.036;2024-01-10T05:06:32;101959.45;;;-9.42;71.87
35507;BME280;36461;52.018;21.036;2024-01-10T05:09:00;101960.61;;;-9.40;71.83
35507;BME280;36461;52.018;21.036;2024-01-10T05:11:29;101958.92;;;-9.40;71.56
35507;BME280;36461;52.018;21.036;2024-01-10T05:13:57;101961.59;;;-9.40;71.34
35507;BME280;36461;52.018;21.036;2024-01-10T05:16:25;101961.41;;;-9.38;71.43
35507;BME280;36461;52.018;21.036;2024-01-10T05:18:53;101961.63;;;-9.35;71.21
35507;BME280;36461;52.018;21.036;2024-01-10T05:21:23;101963.12;;;-9.33;71.12
35507;BME280;36461;52.018;21.036;2024-01-10T05:23:51;101963.98;;;-9.33;71.12
35507;BME280;36461;52.018;21.036;2024-01-10T05:26:19;101964.98;;;-9.28;71.05
35507;BME280;36461;52.018;21.036;2024-01-10T05:28:47;101965.05;;;-9.28;70.83
35507;BME280;36461;52.018;21.036;2024-01-10T05:31:17;101968.75;;;-9.25;70.86
35507;BME280;36461;52.018;21.036;2024-01-10T05:33:45;101966.80;;;-9.20;70.92
35507;BME280;36461;52.018;21.036;2024-01-10T05:36:14;101971.29;;;-9.17;71.09
35507;BME280;36461;52.018;21.036;2024-01-10T05:38:42;101971.17;;;-9.17;70.83
35507;BME280;36461;52.018;21.036;2024-01-10T05:41:10;101969.56;;;-9.18;70.58
35507;BME280;36461;52.018;21.036;2024-01-10T05:43:38;101970.11;;;-9.18;70.58
35507;BME280;36461;52.018;21.036;2024-01-10T05:46:06;101972.05;;;-9.16;70.71
35507;BME280;36461;52.018;21.036;2024-01-10T05:48:34;101969.52;;;-9.14;70.66
35507;BME280;36461;52.018;21.036;2024-01-10T05:51:04;101970.34;;;-9.17;70.68
35507;BME280;36461;52.018;21.036;2024-01-10T05:53:33;101967.22;;;-9.18;70.64
35507;BME280;36461;52.018;21.036;2024-01-10T05:56:02;101967.84;;;-9.21;70.69
35507;BME280;36461;52.018;21.036;2024-01-10T05:58:31;101967.14;;;-9.21;70.72
35507;BME280;36461;52.018;21.036;2024-01-10T06:01:00;101973.24;;;-9.21;70.67
35507;BME280;36461;52.018;21.036;2024-01-10T06:03:28;101970.29;;;-9.20;70.62
35507;BME280;36461;52.018;21.036;2024-01-10T06:05:58;101969.65;;;-9.15;70.74
35507;BME280;36461;52.018;21.036;2024-01-10T06:08:29;101964.34;;;-9.07;70.70
35507;BME280;36461;52.018;21.036;2024-01-10T06:11:03;101960.67;;;-9.04;70.66
35507;BME280;36461;52.018;21.036;2024-01-10T06:13:35;101959.77;;;-9.01;70.74
35507;BME280;36461;52.018;21.036;2024-01-10T06:16:21;101955.64;;;-8.95;70.81
35507;BME280;36461;52.018;21.036;2024-01-10T06:18:52;101955.59;;;-8.88;70.72
35507;BME280;36461;52.018;21.036;2024-01-10T06:21:23;101955.75;;;-8.86;70.48
35507;BME280;36461;52.018;21.036;2024-01-10T06:23:53;101954.55;;;-8.82;70.58
35507;BME280;36461;52.018;21.036;2024-01-10T06:26:25;101950.61;;;-8.79;70.51
35507;BME280;36461;52.018;21.036;2024-01-10T06:28:56;101945.95;;;-8.73;70.62
35507;BME280;36461;52.018;21.036;2024-01-10T06:31:28;101945.06;;;-8.69;70.33
35507;BME280;36461;52.018;21.036;2024-01-10T06:33:59;101942.59;;;-8.68;70.25
35507;BME280;36461;52.018;21.036;2024-01-10T06:36:30;101940.81;;;-8.65;70.31
35507;BME280;36461;52.018;21.036;2024-01-10T06:39:02;101940.27;;;-8.63;70.17
35507;BME280;36461;52.018;21.036;2024-01-10T06:41:34;101947.42;;;-8.60;70.17
35507;BME280;36461;52.018;21.036;2024-01-10T06:44:06;101951.54;;;-8.53;69.89
35507;BME280;36461;52.018;21.036;2024-01-10T06:46:37;101953.31;;;-8.50;70.10
35507;BME280;36461;52.018;21.036;2024-01-10T06:49:09;101955.83;;;-8.50;69.80
35507;BME280;36461;52.018;21.036;2024-01-10T06:51:40;101957.56;;;-8.49;69.71
35507;BME280;36461;52.018;21.036;2024-01-10T06:54:10;101957.96;;;-8.48;69.67
35507;BME280;36461;52.018;21.036;2024-01-10T06:56:42;101955.01;;;-8.44;69.71
35507;BME280;36461;52.018;21.036;2024-01-10T06:59:17;101960.09;;;-8.46;69.55
35507;BME280;36461;52.018;21.036;2024-01-10T07:01:52;101957.17;;;-8.47;69.65
35507;BME280;36461;52.018;21.036;2024-01-10T07:04:24;101958.14;;;-8.45;69.66
35507;BME280;36461;52.018;21.036;2024-01-10T07:14:30;101958.23;;;-8.24;69.53
35507;BME280;36461;52.018;21.036;2024-01-10T07:16:58;101958.20;;;-8.25;69.35
35507;BME280;36461;52.018;21.036;2024-01-10T07:19:27;101956.80;;;-8.23;69.28
35507;BME280;36461;52.018;21.036;2024-01-10T07:21:55;101964.34;;;-8.23;69.03
35507;BME280;36461;52.018;21.036;2024-01-10T07:24:23;101964.84;;;-8.23;69.09
35507;BME280;36461;52.018;21.036;2024-01-10T07:26:52;101964.89;;;-8.22;69.18
35507;BME280;36461;52.018;21.036;2024-01-10T07:29:20;101968.21;;;-8.23;69.20
35507;BME280;36461;52.018;21.036;2024-01-10T07:31:49;101969.29;;;-8.22;69.20
35507;BME280;36461;52.018;21.036;2024-01-10T07:34:20;101972.55;;;-8.21;69.24
35507;BME280;36461;52.018;21.036;2024-01-10T07:36:49;101972.53;;;-8.21;69.23
35507;BME280;36461;52.018;21.036;2024-01-10T07:39:17;101968.95;;;-8.22;69.23
35507;BME280;36461;52.018;21.036;2024-01-10T07:41:48;101964.72;;;-8.23;69.31
35507;BME280;36461;52.018;21.036;2024-01-10T07:44:18;101962.69;;;-8.25;69.08
35507;BME280;36461;52.018;21.036;2024-01-10T07:46:46;101959.42;;;-8.27;69.12
35507;BME280;36461;52.018;21.036;2024-01-10T07:49:14;101959.42;;;-8.24;69.24
35507;BME280;36461;52.018;21.036;2024-01-10T07:51:44;101956.77;;;-8.21;68.95
35507;BME280;36461;52.018;21.036;2024-01-10T07:54:13;101958.89;;;-8.17;69.07
35507;BME280;36461;52.018;21.036;2024-01-10T07:56:41;101961.81;;;-8.14;69.36
35507;BME280;36461;52.018;21.036;2024-01-10T07:59:09;101964.91;;;-8.10;68.91
35507;BME280;36461;52.018;21.036;2024-01-10T08:01:38;101969.19;;;-8.06;69.04
35507;BME280;36461;52.018;21.036;2024-01-10T08:04:06;101970.24;;;-8.01;69.13
35507;BME280;36461;52.018;21.036;2024-01-10T08:06:35;101972.45;;;-7.93;69.13
35507;BME280;36461;52.018;21.036;2024-01-10T08:09:03;101973.51;;;-7.85;69.03
35507;BME280;36461;52.018;21.036;2024-01-10T08:11:32;101981.02;;;-7.76;69.06
35507;BME280;36461;52.018;21.036;2024-01-10T08:14:02;101975.80;;;-7.68;68.73
35507;BME280;36461;52.018;21.036;2024-01-10T08:16:30;101974.10;;;-7.61;68.83
35507;BME280;36461;52.018;21.036;2024-01-10T08:19:00;101973.27;;;-7.56;68.95
35507;BME280;36461;52.018;21.036;2024-01-10T08:21:29;101974.21;;;-7.52;68.70
35507;BME280;36461;52.018;21.036;2024-01-10T08:23:57;101977.04;;;-7.47;68.47
35507;BME280;36461;52.018;21.036;2024-01-10T08:26:26;101973.70;;;-7.44;68.69
35507;BME280;36461;52.018;21.036;2024-01-10T08:28:55;101976.23;;;-7.39;68.29
35507;BME280;36461;52.018;21.036;2024-01-10T08:31:23;101982.15;;;-7.34;68.43
35507;BME280;36461;52.018;21.036;2024-01-10T08:33:52;101980.30;;;-7.31;68.13
35507;BME280;36461;52.018;21.036;2024-01-10T08:36:20;101982.20;;;-7.25;68.22
35507;BME280;36461;52.018;21.036;2024-01-10T08:38:49;101985.41;;;-7.19;68.07
35507;BME280;36461;52.018;21.036;2024-01-10T08:41:17;101983.08;;;-7.14;68.19
35507;BME280;36461;52.018;21.036;2024-01-10T08:43:46;101983.32;;;-7.11;67.99
35507;BME280;36461;52.018;21.036;2024-01-10T08:46:15;101978.24;;;-7.03;67.92
35507;BME280;36461;52.018;21.036;2024-01-10T08:48:44;101973.55;;;-6.98;67.80
35507;BME280;36461;52.018;21.036;2024-01-10T08:51:12;101974.16;;;-6.94;67.53
35507;BME280;36461;52.018;21.036;2024-01-10T08:53:44;101970.30;;;-6.91;67.47
35507;BME280;36461;52.018;21.036;2024-01-10T08:56:12;101967.89;;;-6.86;67.28
35507;BME280;36461;52.018;21.036;2024-01-10T08:58:40;101967.51;;;-6.76;67.31
35507;BME280;36461;52.018;21.036;2024-01-10T09:01:09;101965.73;;;-6.70;66.95
35507;BME280;36461;52.018;21.036;2024-01-10T09:03:38;101967.11;;;-6.66;66.81
35507;BME280;36461;52.018;21.036;2024-01-10T09:06:07;101966.64;;;-6.61;66.56
35507;BME280;36461;52.018;21.036;2024-01-10T09:08:39;101969.73;;;-6.54;66.52
35507;BME280;36461;52.018;21.036;2024-01-10T09:11:08;101964.24;;;-6.47;66.34
35507;BME280;36461;52.018;21.036;2024-01-10T09:13:36;101962.74;;;-6.42;66.02
35507;BME280;36461;52.018;21.036;2024-01-10T09:16:06;101958.08;;;-6.35;66.05
35507;BME280;36461;52.018;21.036;2024-01-10T09:18:34;101953.23;;;-6.30;65.71
35507;BME280;36461;52.018;21.036;2024-01-10T09:21:04;101946.59;;;-6.22;65.81
35507;BME280;36461;52.018;21.036;2024-01-10T09:23:32;101943.59;;;-6.19;65.07
35507;BME280;36461;52.018;21.036;2024-01-10T09:26:00;101939.84;;;-6.11;65.36
35507;BME280;36461;52.018;21.036;2024-01-10T09:28:29;101940.21;;;-6.05;64.98
35507;BME280;36461;52.018;21.036;2024-01-10T09:30:57;101942.59;;;-5.99;64.81
35507;BME280;36461;52.018;21.036;2024-01-10T09:33:25;101945.35;;;-5.92;64.43
35507;BME280;36461;52.018;21.036;2024-01-10T09:35:53;101950.75;;;-5.86;64.41
35507;BME280;36461;52.018;21.036;2024-01-10T09:38:23;101951.63;;;-5.77;64.44
35507;BME280;36461;52.018;21.036;2024-01-10T09:40:59;101950.67;;;-5.71;64.26
35507;BME280;36461;52.018;21.036;2024-01-10T09:43:31;101959.20;;;-5.63;64.41
35507;BME280;36461;52.018;21.036;2024-01-10T09:46:00;101959.65;;;-5.55;63.75
35507;BME280;36461;52.018;21.036;2024-01-10T09:48:29;101960.77;;;-5.50;64.02
35507;BME280;36461;52.018;21.036;2024-01-10T09:50:59;101964.89;;;-5.40;63.92
35507;BME280;36461;52.018;21.036;2024-01-10T09:53:27;101960.70;;;-5.32;63.72
35507;BME280;36461;52.018;21.036;2024-01-10T09:55:59;101955.49;;;-5.25;63.09
35507;BME280;36461;52.018;21.036;2024-01-10T09:58:30;101957.91;;;-5.21;62.96
35507;BME280;36461;52.018;21.036;2024-01-10T10:00:59;101956.11;;;-5.17;63.09
35507;BME280;36461;52.018;21.036;2024-01-10T10:03:36;101954.81;;;-5.10;62.99
35507;BME280;36461;52.018;21.036;2024-01-10T10:06:07;101962.07;;;-5.04;62.55
35507;BME280;36461;52.018;21.036;2024-01-10T10:08:40;101966.13;;;-4.98;62.90
35507;BME280;36461;52.018;21.036;2024-01-10T10:11:13;101967.92;;;-4.94;62.42
35507;BME280;36461;52.018;21.036;2024-01-10T10:13:42;101966.14;;;-4.89;62.28
35507;BME280;36461;52.018;21.036;2024-01-10T10:16:11;101956.85;;;-4.86;61.93
35507;BME280;36461;52.018;21.036;2024-01-10T10:18:41;101957.58;;;-4.85;62.02
35507;BME280;36461;52.018;21.036;2024-01-10T10:21:13;101956.75;;;-4.82;62.02
35507;BME280;36461;52.018;21.036;2024-01-10T10:23:43;101961.77;;;-4.77;61.78
35507;BME280;36461;52.018;21.036;2024-01-10T10:26:16;101961.19;;;-4.72;62.10
35507;BME280;36461;52.018;21.036;2024-01-10T10:28:52;101959.04;;;-4.68;61.21
35507;BME280;36461;52.018;21.036;2024-01-10T10:31:21;101952.29;;;-4.64;61.33
35507;BME280;36461;52.018;21.036;2024-01-10T10:33:49;101946.09;;;-4.61;61.24
35507;BME280;36461;52.018;21.036;2024-01-10T10:36:21;101945.27;;;-4.57;61.22
35507;BME280;36461;52.018;21.036;2024-01-10T10:38:50;101939.91;;;-4.53;60.96
35507;BME280;36461;52.018;21.036;2024-01-10T10:41:18;101936.65;;;-4.47;60.87
35507;BME280;36461;52.018;21.036;2024-01-10T10:43:48;101938.56;;;-4.43;61.20
35507;BME280;36461;52.018;21.036;2024-01-10T10:46:18;101937.34;;;-4.37;60.86
35507;BME280;36461;52.018;21.036;2024-01-10T10:48:50;101936.55;;;-4.34;61.17
35507;BME280;36461;52.018;21.036;2024-01-10T10:53:52;101924.11;;;-4.29;60.88
35507;BME280;36461;52.018;21.036;2024-01-10T10:56:21;101914.33;;;-4.26;60.75
35507;BME280;36461;52.018;21.036;2024-01-10T10:58:53;101905.64;;;-4.24;60.70
35507;BME280;36461;52.018;21.036;2024-01-10T11:01:22;101904.02;;;-4.22;60.68
35507;BME280;36461;52.018;21.036;2024-01-10T11:03:51;101893.08;;;-4.22;60.80
35507;BME280;36461;52.018;21.036;2024-01-10T11:06:19;101886.20;;;-4.20;60.81
35507;BME280;36461;52.018;21.036;2024-01-10T11:09:03;101883.66;;;-4.17;61.14
35507;BME280;36461;52.018;21.036;2024-01-10T11:17:41;101880.05;;;-4.05;60.78
35507;BME280;36461;52.018;21.036;2024-01-10T11:25:39;101875.19;;;-3.91;60.86
35507;BME280;36461;52.018;21.036;2024-01-10T11:28:12;101870.43;;;-3.85;60.99
35507;BME280;36461;52.018;21.036;2024-01-10T11:30:50;101864.04;;;-3.77;60.86
35507;BME280;36461;52.018;21.036;2024-01-10T11:33:43;101862.39;;;-3.73;60.89
35507;BME280;36461;52.018;21.036;2024-01-10T11:36:14;101860.52;;;-3.70;60.54
35507;BME280;36461;52.018;21.036;2024-01-10T11:38:48;101854.77;;;-3.66;60.78
35507;BME280;36461;52.018;21.036;2024-01-10T11:46:42;101843.71;;;-3.57;60.38
35507;BME280;36461;52.018;21.036;2024-01-10T11:49:12;101843.01;;;-3.54;60.32
35507;BME280;36461;52.018;21.036;2024-01-10T11:51:44;101841.15;;;-3.47;59.95
35507;BME280;36461;52.018;21.036;2024-01-10T11:54:40;101839.55;;;-3.42;59.73
35507;BME280;36461;52.018;21.036;2024-01-10T11:59:45;101836.10;;;-3.36;59.50
35507;BME280;36461;52.018;21.036;2024-01-10T12:02:14;101833.04;;;-3.33;59.55
35507;BME280;36461;52.018;21.036;2024-01-10T12:04:44;101831.34;;;-3.29;59.40
35507;BME280;36461;52.018;21.036;2024-01-10T12:07:17;101823.41;;;-3.25;59.42
35507;BME280;36461;52.018;21.036;2024-01-10T12:09:47;101824.52;;;-3.19;59.04
35507;BME280;36461;52.018;21.036;2024-01-10T12:12:16;101821.55;;;-3.14;59.12
35507;BME280;36461;52.018;21.036;2024-01-10T12:14:44;101825.88;;;-3.12;59.02
35507;BME280;36461;52.018;21.036;2024-01-10T12:17:14;101825.90;;;-3.08;58.56
35507;BME280;36461;52.018;21.036;2024-01-10T12:19:43;101818.98;;;-3.04;58.22
35507;BME280;36461;52.018;21.036;2024-01-10T12:22:16;101817.11;;;-3.00;58.43
35507;BME280;36461;52.018;21.036;2024-01-10T12:24:48;101815.45;;;-3.00;58.07
35507;BME280;36461;52.018;21.036;2024-01-10T12:27:19;101814.70;;;-3.01;58.08
35507;BME280;36461;52.018;21.036;2024-01-10T12:29:49;101815.02;;;-2.98;58.41
35507;BME280;36461;52.018;21.036;2024-01-10T12:32:20;101812.61;;;-2.95;58.01
35507;BME280;36461;52.018;21.036;2024-01-10T12:35:03;101813.63;;;-2.92;57.82
35507;BME280;36461;52.018;21.036;2024-01-10T12:37:32;101815.14;;;-2.88;57.32
35507;BME280;36461;52.018;21.036;2024-01-10T12:40:01;101813.88;;;-2.85;57.03
35507;BME280;36461;52.018;21.036;2024-01-10T12:42:38;101814.78;;;-2.84;56.64
35507;BME280;36461;52.018;21.036;2024-01-10T12:45:20;101814.21;;;-2.82;56.53
35507;BME280;36461;52.018;21.036;2024-01-10T12:47:49;101805.33;;;-2.83;56.59
35507;BME280;36461;52.018;21.036;2024-01-10T12:50:17;101804.11;;;-2.84;56.86
35507;BME280;36461;52.018;21.036;2024-01-10T12:52:46;101802.61;;;-2.84;57.10
35507;BME280;36461;52.018;21.036;2024-01-10T12:55:14;101807.05;;;-2.83;57.08
35507;BME280;36461;52.018;21.036;2024-01-10T12:57:43;101808.18;;;-2.81;56.94
35507;BME280;36461;52.018;21.036;2024-01-10T13:00:12;101811.05;;;-2.81;57.18
35507;BME280;36461;52.018;21.036;2024-01-10T13:02:42;101807.90;;;-2.83;56.92
35507;BME280;36461;52.018;21.036;2024-01-10T13:05:10;101812.14;;;-2.87;56.98
35507;BME280;36461;52.018;21.036;2024-01-10T13:07:39;101817.85;;;-2.88;56.61
35507;BME280;36461;52.018;21.036;2024-01-10T13:10:08;101820.14;;;-2.90;56.62
35507;BME280;36461;52.018;21.036;2024-01-10T13:12:36;101818.42;;;-2.90;56.21
35507;BME280;36461;52.018;21.036;2024-01-10T13:15:04;101815.74;;;-2.93;56.41
35507;BME280;36461;52.018;21.036;2024-01-10T13:17:33;101809.98;;;-2.97;56.48